createdAt,value
2018-09-01T00:01:10.909Z,15.00
2018-09-01T00:06:13.985Z,14.90
2018-09-01T00:11:17.094Z,14.80
2018-09-01T00:16:20.206Z,14.70
2018-09-01T00:21:23.297Z,14.60
2018-09-01T00:26:26.370Z,14.60
2018-09-01T00:31:29.442Z,14.60
2018-09-01T00:36:32.510Z,14.60
2018-09-01T00:41:36.053Z,14.60
2018-09-01T00:46:39.136Z,14.50
2018-09-01T00:51:42.209Z,14.40
2018-09-01T00:56:46.429Z,14.40
2018-09-01T01:01:49.500Z,14.30
2018-09-01T01:06:52.585Z,14.30
2018-09-01T01:11:55.695Z,14.20
2018-09-01T01:16:58.817Z,14.20
2018-09-01T01:22:01.914Z,14.20
2018-09-01T01:27:04.989Z,14.10
2018-09-01T01:32:08.110Z,13.90
2018-09-01T01:37:11.182Z,13.80
2018-09-01T01:42:14.265Z,13.70
2018-09-01T01:47:17.365Z,13.70
2018-09-01T01:52:20.471Z,13.70
2018-09-01T01:57:23.557Z,13.70
2018-09-01T02:02:26.665Z,13.70
2018-09-01T02:07:29.749Z,13.60
2018-09-01T02:12:32.825Z,13.70
2018-09-01T02:17:35.995Z,13.60
2018-09-01T02:22:39.086Z,13.70
2018-09-01T02:27:42.171Z,13.60
2018-09-01T02:32:45.268Z,13.60
2018-09-01T02:37:48.368Z,13.50
2018-09-01T02:42:51.469Z,13.50
2018-09-01T02:47:54.561Z,13.40
2018-09-01T02:52:57.669Z,13.40
2018-09-01T02:58:00.766Z,13.30
2018-09-01T03:03:03.930Z,13.30
2018-09-01T03:08:07.040Z,13.30
2018-09-01T03:13:10.145Z,13.20
2018-09-01T03:18:14.457Z,13.20
2018-09-01T03:23:17.564Z,13.10
2018-09-01T03:28:20.659Z,13.10
2018-09-01T03:33:23.745Z,13.00
2018-09-01T03:38:26.848Z,13.00
2018-09-01T03:43:29.954Z,13.00
2018-09-01T03:48:33.064Z,12.90
2018-09-01T03:53:36.154Z,12.90
2018-09-01T03:58:39.238Z,12.90
2018-09-01T04:03:42.335Z,12.90
2018-09-01T04:08:45.430Z,12.80
2018-09-01T04:13:48.548Z,12.80
2018-09-01T04:18:51.638Z,12.70
2018-09-01T04:23:54.737Z,12.70
2018-09-01T04:28:57.837Z,12.70
2018-09-01T04:34:00.942Z,12.70
2018-09-01T04:39:05.781Z,12.70
2018-09-01T04:44:08.872Z,12.70
2018-09-01T04:49:11.970Z,12.70
2018-09-01T04:54:15.078Z,12.70
2018-09-01T04:59:18.184Z,12.70
2018-09-01T05:04:21.282Z,12.70
2018-09-01T05:09:24.359Z,12.60
2018-09-01T05:14:27.432Z,12.60
2018-09-01T05:19:30.530Z,12.60
2018-09-01T05:24:33.622Z,12.60
2018-09-01T05:29:36.750Z,12.60
2018-09-01T05:34:39.833Z,12.60
2018-09-01T05:39:42.925Z,12.50
2018-09-01T05:44:46.248Z,12.50
2018-09-01T05:49:49.354Z,12.50
2018-09-01T05:54:52.505Z,12.60
2018-09-01T05:59:55.716Z,12.70
2018-09-01T06:04:58.802Z,12.80
2018-09-01T06:10:08.664Z,12.80
2018-09-01T06:15:12.932Z,12.90
2018-09-01T06:20:16.057Z,12.90
2018-09-01T06:25:19.131Z,13.00
2018-09-01T06:30:26.381Z,13.10
2018-09-01T06:35:29.491Z,13.20
2018-09-01T06:40:32.577Z,13.30
2018-09-01T06:45:35.665Z,13.40
2018-09-01T06:50:38.774Z,13.50
2018-09-01T06:55:41.874Z,13.50
2018-09-01T07:00:44.984Z,13.50
2018-09-01T07:05:48.096Z,13.60
2018-09-01T07:10:52.388Z,13.70
2018-09-01T07:15:55.485Z,13.80
2018-09-01T07:20:58.598Z,13.90
2018-09-01T07:26:01.705Z,14.00
2018-09-01T07:31:09.158Z,14.10
2018-09-01T07:36:11.838Z,14.20
2018-09-01T07:41:15.184Z,14.30
2018-09-01T07:46:18.280Z,14.50
2018-09-01T07:51:21.374Z,14.60
2018-09-01T07:56:24.461Z,14.80
2018-09-01T08:01:28.758Z,15.10
2018-09-01T08:06:31.984Z,15.30
2018-09-01T08:11:36.226Z,15.40
2018-09-01T08:16:39.293Z,15.60
2018-09-01T08:21:42.395Z,15.90
2018-09-01T08:26:45.485Z,16.10
2018-09-01T08:31:48.837Z,16.30
2018-09-01T08:36:51.939Z,16.60
2018-09-01T08:41:55.028Z,16.90
2018-09-01T08:46:58.122Z,17.20
2018-09-01T08:52:01.226Z,17.60
2018-09-01T08:57:04.306Z,17.90
2018-09-01T09:02:07.430Z,18.20
2018-09-01T09:07:10.530Z,18.40
2018-09-01T09:12:13.621Z,18.70
2018-09-01T09:17:16.717Z,19.00
2018-09-01T09:22:19.824Z,19.30
2018-09-01T09:27:23.012Z,19.60
2018-09-01T09:32:26.103Z,19.90
2018-09-01T09:37:29.383Z,20.00
2018-09-01T09:58:56.437Z,20.40
2018-09-01T10:03:59.553Z,20.50
2018-09-01T10:09:02.761Z,21.00
2018-09-01T10:14:05.888Z,21.40
2018-09-01T10:19:09.327Z,21.40
2018-09-01T10:40:36.497Z,22.60
2018-09-01T10:45:39.640Z,23.20
2018-09-01T10:50:42.726Z,23.80
2018-09-01T10:55:45.884Z,24.30
2018-09-01T11:17:16.923Z,25.30
2018-09-01T11:22:20.262Z,25.60
2018-09-01T11:27:23.421Z,26.10
2018-09-01T11:32:26.696Z,26.60
2018-09-01T11:37:29.789Z,26.60
2018-09-01T11:42:32.993Z,27.00
2018-09-01T12:11:06.698Z,28.50
2018-09-01T12:16:09.821Z,28.50
2018-09-01T12:21:12.905Z,28.40
2018-09-01T12:26:16.071Z,28.40
2018-09-01T12:31:19.152Z,28.50
2018-09-01T12:52:46.348Z,29.00
2018-09-01T12:57:49.450Z,29.00
2018-09-01T13:02:52.553Z,29.10
2018-09-01T13:07:55.725Z,29.20
2018-09-01T13:12:58.768Z,29.00
2018-09-01T13:18:01.874Z,28.70
2018-09-01T13:23:05.225Z,28.50
2018-09-01T13:28:08.373Z,28.40
2018-09-01T13:49:34.653Z,28.50
2018-09-01T13:54:37.737Z,28.70
2018-09-01T13:59:40.953Z,29.10
2018-09-01T14:21:15.601Z,29.10
2018-09-01T14:26:18.745Z,28.90
2018-09-01T14:31:21.830Z,28.80
2018-09-01T14:52:48.649Z,29.20
2018-09-01T14:57:51.759Z,29.20
2018-09-01T15:02:54.870Z,29.10
2018-09-01T15:07:57.964Z,29.20
2018-09-01T15:13:01.070Z,29.20
2018-09-01T15:18:04.171Z,29.20
2018-09-01T15:23:08.139Z,29.40
2018-09-01T15:44:36.195Z,28.70
2018-09-01T16:06:03.986Z,28.10
2018-09-01T16:11:07.421Z,28.10
2018-09-01T16:16:10.517Z,27.90
2018-09-01T16:21:13.606Z,27.90
2018-09-01T16:26:16.689Z,27.70
2018-09-01T16:31:19.802Z,27.50
2018-09-01T16:52:47.460Z,26.00
2018-09-01T16:57:50.558Z,25.60
2018-09-01T17:19:17.761Z,24.30
2018-09-01T17:40:44.474Z,23.50
2018-09-01T17:45:47.657Z,23.30
2018-09-01T18:07:14.863Z,22.50
2018-09-01T18:28:41.372Z,22.10
2018-09-01T18:33:44.465Z,21.90
2018-09-01T18:38:47.635Z,21.70
2018-09-01T18:43:50.777Z,21.70
2018-09-01T18:48:53.890Z,21.50
2018-09-01T18:53:57.289Z,21.30
2018-09-01T18:59:00.380Z,21.20
2018-09-01T19:04:03.469Z,21.00
2018-09-01T19:09:06.895Z,21.00
2018-09-01T19:30:34.152Z,20.50
2018-09-01T19:35:37.481Z,20.40
2018-09-01T19:40:41.061Z,20.30
2018-09-01T19:45:44.186Z,20.30
2018-09-01T20:07:11.649Z,20.10
2018-09-01T20:12:15.105Z,20.00
2018-09-01T20:17:18.822Z,20.00
2018-09-01T20:22:22.252Z,20.00
2018-09-01T20:27:26.012Z,19.90
2018-09-01T20:48:53.859Z,19.60
2018-09-01T20:53:56.962Z,19.60
2018-09-01T20:59:00.052Z,19.50
2018-09-01T21:04:03.473Z,19.50
2018-09-01T21:09:08.229Z,19.40
2018-09-01T21:14:12.048Z,19.40
2018-09-01T21:19:15.872Z,19.40
2018-09-01T21:24:19.281Z,19.40
2018-09-01T21:29:22.381Z,19.30
2018-09-01T21:34:25.511Z,19.30
2018-09-01T21:39:28.584Z,19.30
2018-09-01T21:44:31.689Z,19.30
2018-09-01T21:49:34.820Z,19.30
2018-09-01T21:54:38.001Z,19.20
2018-09-01T21:59:41.188Z,19.20
2018-09-01T22:04:49.762Z,19.10
2018-09-01T22:09:53.933Z,19.00
2018-09-01T22:14:57.020Z,18.80
2018-09-01T22:20:00.137Z,18.80
2018-09-01T22:25:03.250Z,18.60
2018-09-01T22:30:06.348Z,18.60
2018-09-01T22:35:09.433Z,18.40
2018-09-01T22:40:12.537Z,18.30
2018-09-01T22:45:15.634Z,18.30
2018-09-01T22:50:18.709Z,18.20
2018-09-01T23:11:45.805Z,17.70
2018-09-01T23:16:48.895Z,17.60
2018-09-01T23:21:51.989Z,17.60
2018-09-01T23:26:55.085Z,17.50
2018-09-01T23:31:58.172Z,17.30
2018-09-01T23:37:01.273Z,17.30
2018-09-01T23:42:04.370Z,17.20
2018-09-01T23:47:07.505Z,17.10
2018-09-01T23:52:10.598Z,17.00
2018-09-01T23:57:13.676Z,16.90
